Ashland, Pennsylvania
Current Conditions -  °F | °C
As of 2:15 PM on Monday 20 Oct 2014 (Local Time) from KHZL Reporting Station
Clear Clear  
Wind Chill: 54°   Ceiling: Unl
Heat Index: 54°   Visibility: 10mi
Dew Point: 34°   Wind: 9mph
Humidity: 47%   Direction: 170°S
Pressure: 29.99"   Gusts: 16mph
Location:  40.78°N, 76.35°W
Report Text: KHZL 201815Z AUTO 17008G14KT 120V190 10SM CLR 12/01 A2999 RMK AO2
Loading
Personal Weather Stations






























Interactive Weather Map New forecast layout! Learn more

10-Day Weather Forecast

Advertisements
Track Severe Weather on mobile